Jennings, Missouri
Current Conditions -  °F | °C
As of 12:51 AM on Sunday 23 Nov 2014 (Local Time) from KSTL Reporting Station
Overcast Overcast  
Wind Chill: 56°   Ceiling: 10000
Heat Index: 56°   Visibility: 10mi
Dew Point: 46°   Wind: 13mph
Humidity: 69%   Direction: 180°S
Pressure: 29.83"   Gusts: NA
Location:  38.72°N, 90.25°W
Report Text: KSTL 230651Z 18011KT 10SM FEW075 OVC100 13/08 A2983 RMK AO2 SLP097 T01330078
Loading
Personal Weather Stations






























Interactive Weather Map New forecast layout! Learn more

10-Day Weather Forecast

Advertisements
Track Severe Weather on mobile